Time;durP1;ratioP1;P1;durP2;ratioP2;P2;SDS_P1;SDS_P2;PMS_P1;PMS_P2;Temp;Humidity;BMP_temperature;BMP_pressure;BME280_temperature;BME280_humidity;BME280_pressure;Samples;Min_cycle;Max_cycle;Signal;HPM_P1;HPM_P2
2020/12/25 00:01:45;;;;;;;0.83;0.77;;;5.60;96.30;;;;;;5013552;28;20204;-84
2020/12/25 00:04:11;;;;;;;0.97;0.80;;;5.60;95.70;;;;;;5007991;28;20224;-84
2020/12/25 00:06:38;;;;;;;1.97;0.80;;;5.60;95.60;;;;;;4990908;28;20204;-85
2020/12/25 00:09:05;;;;;;;0.83;0.83;;;5.50;96.10;;;;;;4993580;28;20196;-84
2020/12/25 00:11:33;;;;;;;0.67;0.67;;;5.40;96.10;;;;;;4992751;28;20639;-84
2020/12/25 00:14:00;;;;;;;1.20;1.07;;;5.40;96.50;;;;;;4991755;28;20207;-85
2020/12/25 00:16:26;;;;;;;0.87;0.87;;;5.40;96.60;;;;;;5002925;28;20196;-85
2020/12/25 00:18:54;;;;;;;0.70;0.70;;;5.30;96.00;;;;;;5000320;28;20585;-85
2020/12/25 00:21:21;;;;;;;1.00;0.77;;;5.30;96.20;;;;;;5000629;28;20196;-85
2020/12/25 00:23:47;;;;;;;0.83;0.83;;;5.40;95.70;;;;;;4999352;28;20215;-85
2020/12/25 00:26:22;;;;;;;0.70;0.70;;;5.40;95.90;;;;;;4994059;28;20726;-85
2020/12/25 00:28:48;;;;;;;0.77;0.77;;;5.30;96.30;;;;;;4994813;28;20200;-86
2020/12/25 00:31:23;;;;;;;0.80;0.80;;;5.20;96.20;;;;;;4994763;28;20594;-84
2020/12/25 00:33:49;;;;;;;0.93;0.93;;;5.10;96.30;;;;;;5007584;28;20564;-85
2020/12/25 00:36:27;;;;;;;0.67;0.67;;;5.10;96.70;;;;;;4995400;28;20200;-85
2020/12/25 00:38:54;;;;;;;0.93;0.93;;;5.10;96.50;;;;;;4996709;28;20215;-85
2020/12/25 00:41:21;;;;;;;0.60;0.60;;;5.10;96.80;;;;;;5000706;28;20247;-85
2020/12/25 00:43:47;;;;;;;0.67;0.67;;;5.10;96.50;;;;;;4993175;28;20295;-86
2020/12/25 00:46:14;;;;;;;0.70;0.70;;;5.10;96.70;;;;;;4987124;28;20549;-85
2020/12/25 00:48:41;;;;;;;0.93;0.90;;;5.10;96.50;;;;;;4999851;28;20202;-85
2020/12/25 00:51:13;;;;;;;0.60;0.60;;;5.10;96.60;;;;;;4999167;28;20226;-85
2020/12/25 00:53:40;;;;;;;0.60;0.60;;;5.10;96.50;;;;;;5001675;28;20714;-86
2020/12/25 00:56:07;;;;;;;0.97;0.83;;;5.10;96.30;;;;;;4996389;28;20231;-86
2020/12/25 00:58:34;;;;;;;0.70;0.70;;;5.10;95.90;;;;;;5002222;28;20199;-85
2020/12/25 01:01:00;;;;;;;0.97;0.73;;;5.10;95.70;;;;;;4994449;28;20231;-86
2020/12/25 01:03:26;;;;;;;0.80;0.80;;;5.10;95.90;;;;;;5003760;28;20527;-86
2020/12/25 01:05:53;;;;;;;0.80;0.80;;;5.10;95.80;;;;;;4989009;28;20286;-86
2020/12/25 01:08:20;;;;;;;0.60;0.60;;;5.20;95.50;;;;;;4997079;28;20196;-85
2020/12/25 01:10:48;;;;;;;0.70;0.70;;;5.20;95.50;;;;;;4992718;28;20224;-85
2020/12/25 01:13:14;;;;;;;0.60;0.60;;;5.10;95.60;;;;;;5006885;28;20211;-86
2020/12/25 01:15:40;;;;;;;0.80;0.80;;;5.20;95.60;;;;;;4990807;28;20227;-86
2020/12/25 01:18:08;;;;;;;1.33;1.00;;;5.20;95.80;;;;;;4993978;28;20630;-86
2020/12/25 01:20:34;;;;;;;0.83;0.83;;;5.20;95.70;;;;;;4991513;28;20231;-86
2020/12/25 01:23:00;;;;;;;1.40;1.30;;;5.30;95.60;;;;;;4995382;28;20230;-87
2020/12/25 01:25:27;;;;;;;1.10;1.00;;;5.20;95.70;;;;;;4992267;28;20223;-86
2020/12/25 01:27:54;;;;;;;0.80;0.80;;;5.30;95.40;;;;;;4990008;28;20192;-86
2020/12/25 01:30:21;;;;;;;0.87;0.70;;;5.30;95.10;;;;;;5002912;28;20570;-86
2020/12/25 01:32:47;;;;;;;0.80;0.80;;;5.30;95.10;;;;;;4998867;28;20298;-86
2020/12/25 01:35:14;;;;;;;0.83;0.83;;;5.20;95.10;;;;;;4999461;28;20761;-86
2020/12/25 01:37:40;;;;;;;0.87;0.87;;;5.10;95.10;;;;;;4996921;28;20241;-86
2020/12/25 01:40:07;;;;;;;1.10;1.10;;;5.10;95.20;;;;;;5011759;28;20298;-84
2020/12/25 01:42:35;;;;;;;0.87;0.87;;;5.10;95.80;;;;;;5007474;28;20195;-85
2020/12/25 01:45:03;;;;;;;1.00;1.00;;;5.20;95.30;;;;;;5011963;28;20238;-85
2020/12/25 01:47:30;;;;;;;0.90;0.90;;;5.20;95.30;;;;;;5009835;28;20709;-85
2020/12/25 01:49:58;;;;;;;1.00;1.00;;;5.20;95.50;;;;;;4992956;28;20227;-85
2020/12/25 01:52:25;;;;;;;1.30;1.20;;;5.20;95.10;;;;;;5008816;28;20284;-85
2020/12/25 01:54:53;;;;;;;0.90;0.90;;;5.20;95.10;;;;;;5000234;28;20705;-85
2020/12/25 01:57:20;;;;;;;1.20;1.20;;;5.20;95.10;;;;;;5001684;28;20549;-84
2020/12/25 01:59:47;;;;;;;1.33;1.27;;;5.20;95.40;;;;;;5002922;28;20377;-85
2020/12/25 02:02:15;;;;;;;1.10;0.90;;;5.10;95.30;;;;;;5005969;28;20211;-85
2020/12/25 02:04:42;;;;;;;1.00;1.00;;;5.20;95.10;;;;;;5001381;28;20250;-86
2020/12/25 02:07:09;;;;;;;1.23;0.90;;;5.20;95.10;;;;;;4998806;28;20208;-85
2020/12/25 02:09:35;;;;;;;1.57;1.30;;;5.20;95.20;;;;;;5005118;28;20226;-84
2020/12/25 02:12:02;;;;;;;1.17;1.07;;;5.20;95.10;;;;;;4999028;28;20203;-84
2020/12/25 02:14:28;;;;;;;0.90;0.90;;;5.30;95.10;;;;;;4995484;28;20255;-85
2020/12/25 02:16:55;;;;;;;1.10;1.10;;;5.30;95.10;;;;;;4988425;28;20206;-85
2020/12/25 02:19:22;;;;;;;1.20;1.10;;;5.40;95.20;;;;;;4999110;28;20254;-84
2020/12/25 02:21:49;;;;;;;1.00;1.00;;;5.30;95.10;;;;;;4995236;28;20211;-85
2020/12/25 02:24:16;;;;;;;1.00;1.00;;;5.20;95.10;;;;;;4995330;28;20232;-84
2020/12/25 02:26:42;;;;;;;1.47;1.20;;;5.30;95.10;;;;;;4997361;28;20683;-84
2020/12/25 02:29:09;;;;;;;1.53;1.43;;;5.30;95.20;;;;;;5010640;28;20623;-86
2020/12/25 02:31:35;;;;;;;1.40;1.30;;;5.30;95.50;;;;;;5003784;28;20196;-84
2020/12/25 02:34:02;;;;;;;1.60;1.50;;;5.20;95.90;;;;;;4995639;28;20643;-84
2020/12/25 02:36:28;;;;;;;1.53;1.43;;;5.20;96.30;;;;;;4996311;28;20196;-84
2020/12/25 02:38:55;;;;;;;1.67;1.57;;;5.10;96.40;;;;;;5000220;28;20207;-84
2020/12/25 02:41:22;;;;;;;1.60;1.50;;;5.10;96.70;;;;;;5011092;28;20202;-84
2020/12/25 02:43:49;;;;;;;1.63;1.53;;;5.10;97.00;;;;;;5000596;28;20655;-84
2020/12/25 02:46:18;;;;;;;1.50;1.40;;;5.00;96.90;;;;;;4995732;28;20569;-84
2020/12/25 02:48:45;;;;;;;1.60;1.50;;;4.90;97.50;;;;;;4990546;28;20212;-84
2020/12/25 02:51:11;;;;;;;1.67;1.57;;;4.90;97.10;;;;;;4996122;28;20219;-84
2020/12/25 02:53:38;;;;;;;1.70;1.60;;;4.80;97.70;;;;;;4989466;28;20196;-84
2020/12/25 02:56:05;;;;;;;2.03;1.90;;;4.90;98.10;;;;;;4996248;28;20258;-84
2020/12/25 02:58:32;;;;;;;1.77;1.67;;;4.90;97.70;;;;;;4999672;28;20616;-84
2020/12/25 03:00:58;;;;;;;1.60;1.50;;;4.80;97.70;;;;;;4995865;28;20228;-85
2020/12/25 03:03:24;;;;;;;1.97;1.87;;;4.80;97.60;;;;;;4993222;28;20206;-84
2020/12/25 03:05:50;;;;;;;3.00;1.73;;;4.70;97.60;;;;;;5008399;28;20218;-85
2020/12/25 03:08:17;;;;;;;1.50;1.40;;;4.60;97.20;;;;;;5005660;28;20204;-82
2020/12/25 03:10:43;;;;;;;1.67;1.57;;;4.50;96.80;;;;;;4995507;28;20546;-82
2020/12/25 03:13:10;;;;;;;1.80;1.30;;;4.40;96.70;;;;;;5001000;28;20207;-82
2020/12/25 03:15:37;;;;;;;1.50;1.40;;;4.40;96.80;;;;;;4990906;28;20754;-84
2020/12/25 03:18:03;;;;;;;1.77;1.67;;;4.40;96.50;;;;;;4992120;28;20212;-82
2020/12/25 03:20:29;;;;;;;1.40;1.30;;;4.30;96.40;;;;;;4996786;28;20226;-83
2020/12/25 03:22:56;;;;;;;1.60;1.50;;;4.30;96.40;;;;;;4995478;28;20199;-82
2020/12/25 03:25:22;;;;;;;1.50;1.40;;;4.10;95.90;;;;;;5004407;28;20223;-83
2020/12/25 03:27:49;;;;;;;1.30;1.20;;;4.10;96.20;;;;;;5000779;28;20593;-82
2020/12/25 03:30:16;;;;;;;1.13;1.13;;;3.90;96.00;;;;;;4998994;28;20292;-85
2020/12/25 03:32:42;;;;;;;1.00;1.00;;;3.90;96.40;;;;;;4996136;28;20239;-82
2020/12/25 03:35:08;;;;;;;1.00;1.00;;;3.90;95.80;;;;;;5003244;28;20242;-82
2020/12/25 03:37:35;;;;;;;1.10;1.00;;;3.70;95.90;;;;;;5000181;28;20230;-82
2020/12/25 03:40:03;;;;;;;0.90;0.90;;;3.50;95.90;;;;;;5000729;28;20285;-82
2020/12/25 03:42:29;;;;;;;0.90;0.90;;;3.50;96.50;;;;;;5000737;28;20211;-82
2020/12/25 03:44:55;;;;;;;1.00;1.00;;;3.50;96.70;;;;;;5012553;28;20266;-82
2020/12/25 03:47:24;;;;;;;0.90;0.90;;;3.40;96.80;;;;;;5002642;28;20866;-83
2020/12/25 03:49:51;;;;;;;1.20;1.10;;;3.30;97.10;;;;;;4997285;28;20233;-83
2020/12/25 03:52:17;;;;;;;0.60;0.60;;;3.40;97.40;;;;;;4997599;28;20209;-82
2020/12/25 03:54:43;;;;;;;0.90;0.80;;;3.40;97.00;;;;;;5000030;28;20251;-82
2020/12/25 03:57:10;;;;;;;0.80;0.80;;;3.30;96.90;;;;;;4998822;28;20200;-82
2020/12/25 03:59:36;;;;;;;0.80;0.80;;;3.30;97.30;;;;;;4997264;28;20232;-82
2020/12/25 04:02:03;;;;;;;0.90;0.90;;;3.20;97.10;;;;;;5005829;28;20628;-84
2020/12/25 04:04:30;;;;;;;0.83;0.83;;;3.20;97.20;;;;;;5000990;28;20239;-84
2020/12/25 04:06:57;;;;;;;1.00;1.00;;;3.10;97.30;;;;;;5007910;28;20670;-82
2020/12/25 04:09:23;;;;;;;0.70;0.70;;;3.20;97.50;;;;;;5004543;28;20618;-83
2020/12/25 04:11:50;;;;;;;0.87;0.70;;;3.00;97.10;;;;;;5007412;28;20204;-82
2020/12/25 04:14:16;;;;;;;0.70;0.70;;;3.00;97.30;;;;;;5003040;28;20233;-82
2020/12/25 04:16:42;;;;;;;0.90;0.90;;;3.00;97.30;;;;;;5004905;28;20199;-82
2020/12/25 04:19:09;;;;;;;1.17;1.07;;;3.00;97.60;;;;;;4984957;28;20399;-82
2020/12/25 04:21:36;;;;;;;1.83;1.10;;;2.80;97.40;;;;;;5004605;28;20663;-83
2020/12/25 04:24:03;;;;;;;1.03;1.03;;;2.80;97.90;;;;;;4999879;28;20207;-83
2020/12/25 04:26:30;;;;;;;1.17;0.80;;;2.70;97.90;;;;;;4997754;28;20659;-83
2020/12/25 04:28:56;;;;;;;1.37;1.27;;;2.70;98.40;;;;;;4981106;28;20207;-83
2020/12/25 04:31:24;;;;;;;0.73;0.73;;;2.70;98.40;;;;;;4991534;28;20211;-83
2020/12/25 04:33:51;;;;;;;0.97;0.97;;;2.80;98.60;;;;;;5002905;28;20224;-83
2020/12/25 04:36:17;;;;;;;0.80;0.80;;;2.80;98.10;;;;;;4997323;28;20246;-83
2020/12/25 04:38:45;;;;;;;0.60;0.60;;;2.70;98.00;;;;;;4984165;28;20195;-84
2020/12/25 04:41:12;;;;;;;0.70;0.70;;;2.80;97.60;;;;;;4992964;28;20235;-82
2020/12/25 04:43:40;;;;;;;0.80;0.80;;;2.70;97.80;;;;;;5008742;28;20215;-82
2020/12/25 04:46:07;;;;;;;0.80;0.80;;;2.70;98.00;;;;;;4992562;28;20227;-83
2020/12/25 04:48:34;;;;;;;0.67;0.67;;;2.70;98.10;;;;;;5005819;28;20204;-83
2020/12/25 04:51:01;;;;;;;0.80;0.80;;;2.60;97.70;;;;;;4994805;28;20234;-83
2020/12/25 04:53:27;;;;;;;0.70;0.70;;;2.60;98.20;;;;;;4994807;28;20655;-82
2020/12/25 04:55:55;;;;;;;0.87;0.87;;;2.60;98.20;;;;;;4995597;28;20262;-82
2020/12/25 04:58:21;;;;;;;0.80;0.80;;;2.50;98.20;;;;;;5006246;28;20546;-82
2020/12/25 05:01:01;;;;;;;0.80;0.80;;;2.50;98.20;;;;;;5003136;28;20231;-82
2020/12/25 05:03:32;;;;;;;0.90;0.90;;;2.50;98.30;;;;;;4990592;28;20200;-82
2020/12/25 05:06:03;;;;;;;1.27;0.93;;;2.50;98.40;;;;;;4987731;28;20235;-81
2020/12/25 05:08:36;;;;;;;0.83;0.83;;;2.50;98.10;;;;;;4990062;28;20199;-83
2020/12/25 05:11:03;;;;;;;0.70;0.70;;;2.40;98.10;;;;;;4984146;28;20227;-81
2020/12/25 05:13:30;;;;;;;0.80;0.80;;;2.40;98.20;;;;;;4991947;28;20203;-82
2020/12/25 05:15:56;;;;;;;0.93;0.90;;;2.20;98.40;;;;;;4997282;28;20561;-82
2020/12/25 05:18:23;;;;;;;0.80;0.80;;;2.20;98.80;;;;;;4991978;28;20207;-83
2020/12/25 05:20:52;;;;;;;1.47;0.80;;;2.20;99.10;;;;;;4991940;28;20607;-82
2020/12/25 05:23:19;;;;;;;0.70;0.70;;;2.20;98.90;;;;;;4988322;28;20541;-82
2020/12/25 05:25:46;;;;;;;0.97;0.90;;;2.10;99.30;;;;;;5001789;28;20230;-82
2020/12/25 05:28:14;;;;;;;1.00;0.90;;;2.00;99.10;;;;;;4994509;28;20202;-81
2020/12/25 05:30:44;;;;;;;0.90;0.90;;;2.00;99.60;;;;;;5008383;28;20717;-82
2020/12/25 05:33:11;;;;;;;0.80;0.80;;;2.00;99.60;;;;;;4995425;28;20214;-82
2020/12/25 05:35:38;;;;;;;1.07;0.97;;;2.00;99.90;;;;;;5008960;28;20269;-81
2020/12/25 05:38:09;;;;;;;1.30;1.20;;;2.00;99.60;;;;;;4994178;28;20203;-83
2020/12/25 05:40:42;;;;;;;0.80;0.80;;;2.00;99.60;;;;;;5003006;28;20238;-81
2020/12/25 05:43:08;;;;;;;1.00;1.00;;;2.10;99.90;;;;;;4998667;28;20199;-81
2020/12/25 05:45:40;;;;;;;1.00;1.00;;;2.10;99.90;;;;;;4993656;28;20226;-82
2020/12/25 05:48:08;;;;;;;1.20;1.10;;;2.10;99.70;;;;;;4985117;28;20654;-82
2020/12/25 05:50:35;;;;;;;0.80;0.80;;;1.90;99.70;;;;;;4990701;28;20717;-83
2020/12/25 05:53:02;;;;;;;1.10;1.00;;;1.90;99.90;;;;;;5001874;28;20192;-81
2020/12/25 05:55:30;;;;;;;1.30;1.20;;;2.00;99.90;;;;;;4995015;28;20223;-81
2020/12/25 05:57:57;;;;;;;1.37;1.27;;;2.00;99.90;;;;;;4997811;28;20202;-82
2020/12/25 06:00:24;;;;;;;1.23;1.13;;;2.00;99.90;;;;;;4996371;28;20231;-81
2020/12/25 06:02:54;;;;;;;1.50;1.40;;;2.00;99.90;;;;;;4994337;28;20206;-81
2020/12/25 06:05:21;;;;;;;1.70;1.60;;;2.00;99.90;;;;;;4999431;28;20215;-81
2020/12/25 06:07:49;;;;;;;1.53;1.43;;;2.00;99.90;;;;;;5013646;28;20326;-81
2020/12/25 06:10:19;;;;;;;1.73;1.63;;;2.00;99.90;;;;;;4993074;28;20231;-81
2020/12/25 06:12:46;;;;;;;1.43;1.33;;;2.00;99.90;;;;;;4996817;28;20211;-81
2020/12/25 06:15:18;;;;;;;1.70;1.60;;;2.00;99.90;;;;;;5009003;28;20234;-81
2020/12/25 06:18:01;;;;;;;1.73;1.63;;;2.10;99.90;;;;;;5005731;28;20215;-82
2020/12/25 06:20:31;;;;;;;1.50;1.40;;;2.10;99.90;;;;;;4996303;28;20238;-82
2020/12/25 06:22:58;;;;;;;1.70;1.60;;;2.10;99.90;;;;;;4999059;28;20579;-81
2020/12/25 06:25:26;;;;;;;1.63;1.53;;;2.20;99.90;;;;;;5000331;28;20722;-81
2020/12/25 06:27:59;;;;;;;5.20;1.83;;;2.20;99.70;;;;;;5014646;28;20211;-81
2020/12/25 06:30:27;;;;;;;1.63;1.53;;;2.10;99.90;;;;;;4998317;28;20560;-81
2020/12/25 06:32:54;;;;;;;1.73;1.63;;;2.20;99.90;;;;;;4992971;28;20206;-81
2020/12/25 06:35:33;;;;;;;1.83;1.73;;;2.10;99.90;;;;;;4996299;28;20227;-81
2020/12/25 06:38:05;;;;;;;2.07;1.97;;;2.10;99.90;;;;;;4992370;28;20210;-81
2020/12/25 06:40:32;;;;;;;1.80;1.70;;;2.10;99.90;;;;;;4998905;28;20231;-82
2020/12/25 06:42:59;;;;;;;1.90;1.70;;;2.20;99.90;;;;;;4999925;28;20204;-81
2020/12/25 06:45:31;;;;;;;2.70;1.93;;;2.10;99.90;;;;;;4991230;28;20760;-81
2020/12/25 06:48:14;;;;;;;2.30;2.10;;;2.10;99.90;;;;;;4994570;28;20207;-82
2020/12/25 06:50:50;;;;;;;2.17;1.97;;;2.20;99.90;;;;;;4995078;28;20223;-82
2020/12/25 06:53:43;;;;;;;2.27;2.10;;;2.10;99.90;;;;;;5000088;28;20207;-84
2020/12/25 06:56:15;;;;;;;1.90;1.80;;;2.10;99.90;;;;;;4953810;28;20295;-82
2020/12/25 06:58:47;;;;;;;2.57;2.20;;;2.10;99.90;;;;;;5003592;28;20237;-81
2020/12/25 07:01:14;;;;;;;2.13;2.00;;;2.10;99.90;;;;;;5000677;28;20693;-81
2020/12/25 07:03:41;;;;;;;2.30;2.10;;;2.10;99.90;;;;;;5002640;28;20210;-82
2020/12/25 07:06:10;;;;;;;2.10;2.00;;;2.10;99.90;;;;;;4999927;28;20227;-82
2020/12/25 07:08:45;;;;;;;1.80;1.70;;;2.20;99.90;;;;;;4994236;28;20617;-81
2020/12/25 07:11:12;;;;;;;2.17;2.00;;;2.20;99.90;;;;;;4984047;28;20226;-81
2020/12/25 07:13:39;;;;;;;2.30;2.03;;;2.20;99.90;;;;;;4999657;28;20203;-82
2020/12/25 07:16:06;;;;;;;1.97;1.87;;;2.10;99.90;;;;;;4987493;28;20227;-81
2020/12/25 07:18:32;;;;;;;2.00;1.80;;;2.20;99.90;;;;;;4995042;28;20203;-81
2020/12/25 07:21:01;;;;;;;2.13;1.93;;;2.20;99.90;;;;;;4998026;28;20237;-82
2020/12/25 07:23:28;;;;;;;1.90;1.80;;;2.30;99.90;;;;;;4997423;28;20207;-81
2020/12/25 07:25:58;;;;;;;2.03;1.90;;;2.30;99.90;;;;;;5000529;28;20226;-82
2020/12/25 07:28:26;;;;;;;2.97;1.80;;;2.40;99.90;;;;;;4991925;28;20210;-81
2020/12/25 07:30:54;;;;;;;2.00;1.90;;;2.40;99.70;;;;;;5003501;28;20239;-82
2020/12/25 07:33:21;;;;;;;2.67;1.90;;;2.20;99.70;;;;;;4991143;28;20207;-81
2020/12/25 07:35:47;;;;;;;2.37;2.17;;;2.20;99.90;;;;;;5002389;28;20240;-82
2020/12/25 07:38:15;;;;;;;2.73;2.20;;;2.20;99.80;;;;;;5003873;28;20195;-81
2020/12/25 07:40:43;;;;;;;2.40;2.20;;;2.10;99.60;;;;;;4985236;28;20231;-82
2020/12/25 07:43:10;;;;;;;2.60;2.40;;;2.10;99.70;;;;;;4999884;28;20198;-82
2020/12/25 07:45:37;;;;;;;3.80;2.37;;;2.20;99.90;;;;;;4994169;28;20239;-81
2020/12/25 07:48:04;;;;;;;2.37;2.07;;;2.20;99.90;;;;;;4994442;28;20214;-82
2020/12/25 07:50:34;;;;;;;2.57;2.37;;;2.20;99.90;;;;;;4998590;28;20270;-81
2020/12/25 07:53:01;;;;;;;2.80;2.50;;;2.20;99.90;;;;;;4987213;28;20196;-81
2020/12/25 07:55:29;;;;;;;2.47;2.27;;;2.20;99.70;;;;;;4979874;28;20418;-82
2020/12/25 07:57:59;;;;;;;4.53;2.67;;;2.30;99.80;;;;;;4993627;28;20662;-81
2020/12/25 08:00:26;;;;;;;2.73;2.50;;;2.30;99.70;;;;;;4998112;28;20231;-82
2020/12/25 08:02:53;;;;;;;2.70;2.50;;;2.30;99.80;;;;;;5004720;28;20556;-82
2020/12/25 08:05:20;;;;;;;2.63;2.43;;;2.40;99.90;;;;;;4990348;28;20224;-82
2020/12/25 08:07:47;;;;;;;2.97;2.77;;;2.30;99.70;;;;;;4995706;28;20207;-81
2020/12/25 08:10:16;;;;;;;6.80;5.30;;;2.30;99.70;;;;;;4992735;28;20712;-82
2020/12/25 08:12:44;;;;;;;2.40;2.20;;;2.30;99.90;;;;;;4989345;28;20597;-82
2020/12/25 08:15:13;;;;;;;3.80;3.00;;;2.30;99.70;;;;;;5000347;28;20275;-82
2020/12/25 08:17:40;;;;;;;2.80;2.60;;;2.30;99.70;;;;;;4998719;28;20237;-82
2020/12/25 08:20:07;;;;;;;3.10;2.43;;;2.40;99.70;;;;;;5001252;28;20220;-81
2020/12/25 08:22:36;;;;;;;3.00;2.70;;;2.40;99.70;;;;;;5002347;28;20207;-82
2020/12/25 08:25:03;;;;;;;2.67;2.43;;;2.40;99.70;;;;;;4992948;28;20717;-82
2020/12/25 08:27:32;;;;;;;2.67;2.43;;;2.50;99.70;;;;;;4996015;28;20204;-84
2020/12/25 08:30:01;;;;;;;3.07;2.73;;;2.40;99.50;;;;;;4994385;28;20216;-82
2020/12/25 08:32:30;;;;;;;2.60;2.40;;;2.40;99.40;;;;;;4993454;28;20207;-81
2020/12/25 08:35:16;;;;;;;2.53;2.33;;;2.50;99.10;;;;;;4996155;28;20707;-81
2020/12/25 08:37:59;;;;;;;2.70;2.50;;;2.50;99.00;;;;;;5001704;28;20208;-81
2020/12/25 08:40:31;;;;;;;2.30;2.10;;;2.70;98.60;;;;;;4987421;28;20576;-82
2020/12/25 08:43:09;;;;;;;2.70;2.50;;;2.70;98.60;;;;;;4991338;28;20206;-82
2020/12/25 08:45:36;;;;;;;2.80;2.33;;;2.60;98.30;;;;;;4996852;28;20224;-83
2020/12/25 08:48:09;;;;;;;2.63;2.43;;;2.70;98.30;;;;;;4999813;28;20199;-82
2020/12/25 08:50:36;;;;;;;2.80;2.50;;;2.70;98.00;;;;;;4995539;28;20604;-82
2020/12/25 08:53:15;;;;;;;2.57;2.27;;;2.70;97.90;;;;;;4995991;28;20214;-82
2020/12/25 08:55:42;;;;;;;2.47;2.27;;;2.60;97.80;;;;;;5005062;28;20228;-82
2020/12/25 08:58:08;;;;;;;2.50;2.30;;;2.70;97.60;;;;;;5004322;28;20191;-82
2020/12/25 09:00:35;;;;;;;2.30;2.10;;;2.90;97.30;;;;;;4999580;28;20251;-82
2020/12/25 09:03:01;;;;;;;2.47;2.20;;;2.90;97.00;;;;;;4998831;28;20574;-83
2020/12/25 09:05:29;;;;;;;2.83;2.50;;;3.00;96.60;;;;;;5001650;28;20589;-82
2020/12/25 09:07:55;;;;;;;2.30;2.10;;;3.00;96.50;;;;;;5002603;28;20557;-82
2020/12/25 09:10:22;;;;;;;2.23;2.03;;;3.00;95.60;;;;;;4988632;28;20279;-85
2020/12/25 09:12:49;;;;;;;2.47;2.20;;;3.00;95.60;;;;;;4996569;28;20205;-85
2020/12/25 09:15:15;;;;;;;2.60;2.40;;;3.10;95.90;;;;;;5001514;28;20288;-82
2020/12/25 09:17:42;;;;;;;2.70;2.50;;;3.10;95.80;;;;;;4996484;28;20203;-82
2020/12/25 09:20:09;;;;;;;2.37;2.13;;;3.10;96.00;;;;;;5002200;28;20258;-84
2020/12/25 09:22:36;;;;;;;2.53;2.30;;;3.20;96.10;;;;;;5006886;28;20547;-85
2020/12/25 09:25:03;;;;;;;3.07;2.20;;;3.20;95.80;;;;;;5000364;28;20219;-82
2020/12/25 09:27:29;;;;;;;3.40;2.13;;;3.30;95.40;;;;;;5003626;28;20206;-82
2020/12/25 09:29:55;;;;;;;2.53;2.10;;;3.30;95.10;;;;;;5006465;28;20235;-85
2020/12/25 09:32:22;;;;;;;2.40;2.20;;;3.30;94.70;;;;;;5002098;28;20503;-85
2020/12/25 09:34:48;;;;;;;2.37;1.90;;;3.30;95.00;;;;;;4994505;28;20231;-82
2020/12/25 09:37:14;;;;;;;2.97;2.50;;;3.30;94.40;;;;;;5001990;28;20209;-85
2020/12/25 09:39:41;;;;;;;2.67;2.40;;;3.20;94.70;;;;;;4996413;28;20235;-85
2020/12/25 09:42:08;;;;;;;2.50;2.30;;;3.20;94.90;;;;;;5002386;28;20727;-86
2020/12/25 09:44:36;;;;;;;2.10;1.90;;;3.30;94.90;;;;;;4998610;28;20227;-85
2020/12/25 09:47:03;;;;;;;2.20;2.00;;;3.30;94.70;;;;;;5008776;28;20200;-85
2020/12/25 09:49:29;;;;;;;3.70;2.00;;;3.50;94.30;;;;;;4996548;28;20228;-84
2020/12/25 09:51:57;;;;;;;3.50;1.90;;;3.50;94.80;;;;;;4992796;28;20203;-85
2020/12/25 09:54:23;;;;;;;1.97;1.87;;;3.70;93.70;;;;;;4997683;28;20265;-86
2020/12/25 09:56:50;;;;;;;2.30;2.10;;;3.70;93.80;;;;;;4982923;28;20204;-85
2020/12/25 09:59:17;;;;;;;2.47;2.13;;;3.60;93.90;;;;;;4999392;28;20595;-85
2020/12/25 10:01:43;;;;;;;2.33;2.13;;;3.60;95.00;;;;;;4996421;28;20239;-86
2020/12/25 10:04:09;;;;;;;2.30;2.10;;;3.70;93.90;;;;;;4995305;28;20647;-85
2020/12/25 10:06:36;;;;;;;3.13;2.00;;;3.70;93.80;;;;;;4999090;28;20202;-85
2020/12/25 10:09:02;;;;;;;2.07;1.87;;;3.80;93.40;;;;;;5004846;28;20206;-84
2020/12/25 10:11:29;;;;;;;1.83;1.73;;;3.90;92.70;;;;;;5000566;28;20224;-85
2020/12/25 10:13:56;;;;;;;2.03;1.90;;;3.90;92.00;;;;;;4995815;28;20531;-84
2020/12/25 10:16:22;;;;;;;1.77;1.67;;;4.00;92.40;;;;;;5012909;28;20203;-84
2020/12/25 10:18:49;;;;;;;2.20;1.80;;;3.90;91.90;;;;;;4996474;28;20196;-86
2020/12/25 10:21:19;;;;;;;2.47;2.00;;;3.90;92.10;;;;;;5000160;28;20219;-84
2020/12/25 10:23:45;;;;;;;3.37;1.90;;;3.80;92.10;;;;;;4999865;28;20200;-84
2020/12/25 10:26:12;;;;;;;2.43;2.00;;;3.80;92.80;;;;;;5000332;28;20227;-85
2020/12/25 10:28:38;;;;;;;2.13;2.00;;;3.80;92.80;;;;;;5000894;28;20262;-85
2020/12/25 10:31:08;;;;;;;2.00;1.80;;;3.80;93.10;;;;;;4995166;28;20258;-85
2020/12/25 10:33:35;;;;;;;2.10;1.90;;;3.80;92.50;;;;;;4998201;28;20206;-84
2020/12/25 10:36:01;;;;;;;2.13;1.93;;;3.90;92.20;;;;;;5011570;28;20251;-84
2020/12/25 10:38:27;;;;;;;1.80;1.70;;;3.90;92.20;;;;;;4992067;28;20206;-84
2020/12/25 10:40:54;;;;;;;1.87;1.70;;;3.80;92.30;;;;;;5002915;28;20231;-84
2020/12/25 10:43:20;;;;;;;2.07;1.87;;;3.80;91.50;;;;;;5001046;28;20666;-85
2020/12/25 10:45:47;;;;;;;1.70;1.60;;;3.70;91.50;;;;;;4992365;28;20278;-85
2020/12/25 10:48:14;;;;;;;2.10;1.90;;;3.60;91.20;;;;;;4991918;28;20576;-84
2020/12/25 10:50:41;;;;;;;1.70;1.60;;;3.60;91.80;;;;;;4999564;28;20228;-84
2020/12/25 10:53:07;;;;;;;2.13;1.80;;;3.60;91.90;;;;;;5002607;28;20242;-84
2020/12/25 10:55:33;;;;;;;1.80;1.53;;;3.50;92.00;;;;;;5003557;28;20583;-84
2020/12/25 10:58:00;;;;;;;2.33;1.80;;;3.50;91.30;;;;;;4998345;28;20208;-85
2020/12/25 11:00:26;;;;;;;2.10;1.90;;;3.60;91.10;;;;;;4997786;28;20223;-84
2020/12/25 11:02:53;;;;;;;2.73;1.97;;;3.60;91.20;;;;;;5017452;28;20200;-85
2020/12/25 11:05:20;;;;;;;1.80;1.70;;;3.50;91.20;;;;;;4999339;28;20239;-84
2020/12/25 11:07:47;;;;;;;1.80;1.70;;;3.60;92.10;;;;;;5003400;28;20199;-84
2020/12/25 11:10:13;;;;;;;1.83;1.73;;;3.50;91.40;;;;;;5015804;28;20242;-85
2020/12/25 11:12:40;;;;;;;1.73;1.63;;;3.50;91.50;;;;;;4996139;28;20196;-84
2020/12/25 11:15:06;;;;;;;1.77;1.67;;;3.40;91.00;;;;;;4989474;28;20231;-85
2020/12/25 11:17:33;;;;;;;2.23;1.93;;;3.40;91.40;;;;;;4997346;28;20191;-85
2020/12/25 11:19:59;;;;;;;1.90;1.80;;;3.50;91.70;;;;;;4992706;28;20243;-85
2020/12/25 11:22:26;;;;;;;2.10;1.90;;;3.50;91.20;;;;;;5002128;28;20197;-85
2020/12/25 11:24:53;;;;;;;2.67;1.97;;;3.60;91.40;;;;;;4992763;28;20223;-85
2020/12/25 11:27:19;;;;;;;2.10;1.90;;;3.60;91.20;;;;;;5006532;28;20657;-85
2020/12/25 11:29:45;;;;;;;2.30;2.10;;;3.60;91.10;;;;;;5000818;28;20229;-86
2020/12/25 11:32:12;;;;;;;1.77;1.67;;;3.70;91.00;;;;;;4985775;28;20211;-85
2020/12/25 11:34:38;;;;;;;2.23;2.03;;;3.80;90.50;;;;;;4995306;28;20232;-84
2020/12/25 11:37:04;;;;;;;2.27;2.00;;;3.80;90.50;;;;;;4988929;28;20562;-85
2020/12/25 11:39:32;;;;;;;2.30;2.10;;;3.80;90.90;;;;;;4992803;28;20586;-85
2020/12/25 11:41:58;;;;;;;2.43;2.00;;;4.00;91.00;;;;;;4997442;28;20200;-85
2020/12/25 11:44:24;;;;;;;2.73;2.00;;;4.00;90.90;;;;;;4997947;28;20262;-84
2020/12/25 11:46:51;;;;;;;2.13;2.00;;;3.90;90.70;;;;;;4994961;28;20710;-85
2020/12/25 11:49:17;;;;;;;3.23;2.40;;;4.00;90.90;;;;;;4999533;28;20227;-85
2020/12/25 11:51:44;;;;;;;2.03;1.93;;;4.00;91.20;;;;;;4997387;28;20256;-85
2020/12/25 11:54:10;;;;;;;3.27;2.17;;;4.10;90.80;;;;;;4987164;28;20203;-86
2020/12/25 11:56:37;;;;;;;2.27;2.07;;;4.10;91.00;;;;;;5000630;28;20231;-84
2020/12/25 11:59:03;;;;;;;3.00;2.67;;;4.00;90.50;;;;;;5004168;28;20207;-85
2020/12/25 12:01:30;;;;;;;3.00;2.47;;;4.10;91.00;;;;;;5004990;28;20227;-84
2020/12/25 12:03:56;;;;;;;3.10;2.80;;;4.00;91.00;;;;;;5000138;28;20207;-84
2020/12/25 12:06:24;;;;;;;3.20;2.37;;;4.00;91.20;;;;;;5009496;28;20331;-84
2020/12/25 12:08:50;;;;;;;2.83;2.60;;;4.00;90.50;;;;;;5005734;28;20199;-84
2020/12/25 12:11:17;;;;;;;3.17;2.83;;;3.90;90.90;;;;;;4996117;28;20328;-86
2020/12/25 12:13:44;;;;;;;3.37;3.07;;;3.80;90.70;;;;;;5000057;28;20203;-85
2020/12/25 12:16:14;;;;;;;2.93;2.73;;;3.80;90.50;;;;;;4992180;28;20721;-85
2020/12/25 12:18:41;;;;;;;3.73;2.70;;;3.80;91.00;;;;;;5002379;28;20211;-85
2020/12/25 12:21:10;;;;;;;4.77;3.03;;;3.80;90.90;;;;;;4989533;28;20231;-86
2020/12/25 12:23:37;;;;;;;3.30;3.00;;;3.80;91.20;;;;;;5000030;28;20207;-86
2020/12/25 12:26:04;;;;;;;3.80;3.40;;;3.90;91.30;;;;;;4991308;28;20239;-84
2020/12/25 12:28:31;;;;;;;3.57;3.27;;;3.80;91.30;;;;;;4996371;28;20200;-86
2020/12/25 12:30:58;;;;;;;3.80;3.43;;;3.80;91.20;;;;;;4993240;28;20238;-85
2020/12/25 12:33:25;;;;;;;3.43;3.03;;;3.80;91.40;;;;;;4999960;28;20550;-85
2020/12/25 12:35:51;;;;;;;3.93;3.53;;;3.80;90.80;;;;;;4997709;28;20726;-85
2020/12/25 12:38:17;;;;;;;3.83;3.43;;;3.90;91.00;;;;;;4996038;28;20215;-85
2020/12/25 12:40:45;;;;;;;3.83;3.27;;;4.00;91.00;;;;;;4994356;28;20628;-85
2020/12/25 12:43:11;;;;;;;4.67;3.73;;;4.10;90.60;;;;;;4995534;28;20200;-85
2020/12/25 12:45:38;;;;;;;3.60;3.30;;;4.00;90.80;;;;;;5008133;28;20226;-85
2020/12/25 12:48:05;;;;;;;5.60;3.47;;;4.00;90.50;;;;;;4990519;28;20647;-84
2020/12/25 12:50:31;;;;;;;3.90;3.53;;;4.00;91.00;;;;;;4995405;28;20226;-84
2020/12/25 12:52:58;;;;;;;4.20;3.80;;;3.90;90.80;;;;;;4994261;28;20208;-84
2020/12/25 12:55:24;;;;;;;3.87;3.40;;;3.80;91.30;;;;;;4992643;28;20640;-84
2020/12/25 12:57:51;;;;;;;4.30;3.90;;;3.70;91.30;;;;;;4989555;28;20196;-84
2020/12/25 13:00:17;;;;;;;4.23;3.70;;;3.60;91.90;;;;;;4993485;28;20234;-84